Terminal Aerodrome Forecast
Issued by NWS Paducah, KY

Home | Current Version | Previous Version | Text Only | Print | Product List | Glossary On
Versions: 1 2 3 4 5 6 7 8 9 10 11 12 13 14
000
FTUS43 KPAH 040520
TAFPAH
TAF
KPAH 040520Z 0406/0506 24003KT P6SM SKC
     FM041200 23008KT P6SM VCSH BKN070
     FM041700 32015G25KT P6SM BKN050
     FM050100 33005KT P6SM FEW060=

USA.gov is the U.S. government's official web portal to all federal, state and local government web resources and services.